createdAt,value
2022-11-24T00:02:45.715Z,93.75
2022-11-24T00:07:47.116Z,94.16
2022-11-24T00:12:48.409Z,94.74
2022-11-24T00:17:49.684Z,94.17
2022-11-24T00:22:50.984Z,93.61
2022-11-24T00:27:52.668Z,92.75
2022-11-24T00:32:55.260Z,92.83
2022-11-24T00:37:56.611Z,93.46
2022-11-24T00:42:57.900Z,94.01
2022-11-24T00:47:59.163Z,93.80
2022-11-24T00:53:00.428Z,93.86
2022-11-24T00:58:01.847Z,95.00
2022-11-24T01:03:03.177Z,95.20
2022-11-24T01:08:05.275Z,94.98
2022-11-24T01:13:06.567Z,95.17
2022-11-24T01:18:08.019Z,94.62
2022-11-24T01:23:09.273Z,94.42
2022-11-24T01:28:10.542Z,94.77
2022-11-24T01:33:11.808Z,94.90
2022-11-24T01:38:13.072Z,94.44
2022-11-24T01:43:20.440Z,94.59
2022-11-24T01:48:30.345Z,94.72
2022-11-24T01:53:31.701Z,94.82
2022-11-24T01:58:35.098Z,95.15
2022-11-24T02:03:39.725Z,95.63
2022-11-24T02:08:47.142Z,95.22
2022-11-24T02:13:51.538Z,94.84
2022-11-24T02:18:53.696Z,94.46
2022-11-24T02:24:06.687Z,94.14
2022-11-24T02:29:09.240Z,93.51
2022-11-24T02:34:10.524Z,93.91
2022-11-24T02:39:13.827Z,94.62
2022-11-24T02:44:17.625Z,94.37
2022-11-24T02:49:18.919Z,94.91
2022-11-24T02:54:20.224Z,93.96
2022-11-24T02:59:21.573Z,93.59
2022-11-24T03:04:23.044Z,93.58
2022-11-24T03:09:24.401Z,93.65
2022-11-24T03:14:25.698Z,93.44
2022-11-24T03:19:26.956Z,93.85
2022-11-24T03:24:28.282Z,93.87
2022-11-24T03:29:30.042Z,93.94
2022-11-24T03:34:31.496Z,94.35
2022-11-24T03:39:33.063Z,94.14
2022-11-24T03:44:34.730Z,93.49
2022-11-24T03:49:36.437Z,92.69
2022-11-24T03:54:37.818Z,92.83
2022-11-24T03:59:39.171Z,93.27
2022-11-24T04:04:40.425Z,93.43
2022-11-24T04:09:41.781Z,93.64
2022-11-24T04:14:43.117Z,93.73
2022-11-24T04:19:44.416Z,93.19
2022-11-24T04:24:45.662Z,92.41
2022-11-24T04:29:46.982Z,92.93
2022-11-24T04:34:48.244Z,93.89
2022-11-24T04:39:49.520Z,94.03
2022-11-24T04:44:50.783Z,94.32
2022-11-24T04:49:52.396Z,94.11
2022-11-24T04:54:53.671Z,93.90
2022-11-24T04:59:55.447Z,93.79
2022-11-24T05:04:56.704Z,93.76
2022-11-24T05:10:16.463Z,93.85
2022-11-24T05:15:17.810Z,93.71
2022-11-24T05:20:19.986Z,93.60
2022-11-24T05:25:21.429Z,93.16
2022-11-24T05:30:22.757Z,93.51
2022-11-24T05:35:24.297Z,93.33
2022-11-24T05:40:25.633Z,93.07
2022-11-24T05:45:27.053Z,92.86
2022-11-24T05:50:28.309Z,92.73
2022-11-24T05:55:29.717Z,92.17
2022-11-24T06:00:33.107Z,91.84
2022-11-24T06:05:34.383Z,91.88
2022-11-24T06:10:35.843Z,91.14
2022-11-24T06:15:37.817Z,91.14
2022-11-24T06:20:39.237Z,91.13
2022-11-24T06:25:40.670Z,91.15
2022-11-24T06:30:42.010Z,90.64
2022-11-24T06:35:43.307Z,90.63
2022-11-24T06:40:44.562Z,91.10
2022-11-24T06:45:51.481Z,91.09
2022-11-24T06:50:53.541Z,91.15
2022-11-24T06:55:58.780Z,90.77
2022-11-24T07:01:00.282Z,90.97
2022-11-24T07:06:01.750Z,90.50
2022-11-24T07:11:07.869Z,90.79
2022-11-24T07:16:21.862Z,91.80
2022-11-24T07:21:24.549Z,91.88
2022-11-24T07:26:26.516Z,91.56
2022-11-24T07:31:27.989Z,91.70
2022-11-24T07:36:29.502Z,91.87
2022-11-24T07:41:30.794Z,92.80
2022-11-24T07:46:32.075Z,93.50
2022-11-24T07:51:33.402Z,92.90
2022-11-24T07:56:34.757Z,93.37
2022-11-24T08:01:36.117Z,95.89
2022-11-24T08:06:40.876Z,93.10
2022-11-24T08:11:45.935Z,92.81
2022-11-24T08:16:47.435Z,92.88
2022-11-24T08:21:48.870Z,89.80
2022-11-24T08:26:50.303Z,90.73
2022-11-24T08:31:51.873Z,91.56
2022-11-24T08:36:53.510Z,91.30
2022-11-24T08:41:54.814Z,91.09
2022-11-24T08:46:56.130Z,90.62
2022-11-24T08:51:57.815Z,89.88
2022-11-24T08:56:59.111Z,90.41
2022-11-24T09:02:00.465Z,90.17
2022-11-24T09:07:01.763Z,90.54
2022-11-24T09:12:03.115Z,89.82
2022-11-24T09:17:04.481Z,88.58
2022-11-24T09:22:05.804Z,85.93
2022-11-24T09:27:07.081Z,86.27
2022-11-24T09:32:08.370Z,86.03
2022-11-24T09:37:09.705Z,84.67
2022-11-24T09:42:26.739Z,84.34
2022-11-24T09:47:41.681Z,82.32
2022-11-24T09:52:54.241Z,81.72
2022-11-24T09:58:23.116Z,80.38
2022-11-24T10:03:34.330Z,80.65
2022-11-24T10:08:38.622Z,80.80
2022-11-24T10:13:48.013Z,80.07
2022-11-24T10:19:37.095Z,75.01
2022-11-24T10:24:58.627Z,74.73
2022-11-24T10:30:01.160Z,75.48
2022-11-24T10:35:21.614Z,73.88
2022-11-24T10:40:56.898Z,73.27
2022-11-24T10:46:13.313Z,75.32
2022-11-24T10:51:36.278Z,74.61
2022-11-24T10:56:42.511Z,72.25
2022-11-24T11:01:43.948Z,69.18
2022-11-24T11:06:45.788Z,65.75
2022-11-24T11:11:51.174Z,65.25
2022-11-24T11:16:55.477Z,66.92
2022-11-24T11:22:02.309Z,66.43
2022-11-24T11:27:16.350Z,59.83
2022-11-24T11:37:42.760Z,41.59
2022-11-24T11:43:03.536Z,34.71
2022-11-24T11:48:27.804Z,28.53
2022-11-24T11:53:46.400Z,35.85
2022-11-24T11:58:53.491Z,45.75
2022-11-24T12:04:20.391Z,50.51
2022-11-24T12:09:29.570Z,52.05
2022-11-24T12:14:46.643Z,50.73
2022-11-24T12:20:17.004Z,53.52
2022-11-24T12:25:21.302Z,54.36
2022-11-24T12:30:23.803Z,55.68
2022-11-24T12:35:45.664Z,54.75
2022-11-24T12:46:47.075Z,56.69
2022-11-24T12:52:01.291Z,56.29
2022-11-24T12:57:14.451Z,54.93
2022-11-24T13:02:25.962Z,53.80
2022-11-24T13:07:43.664Z,53.97
2022-11-24T13:12:57.308Z,55.68
2022-11-24T13:18:08.576Z,56.29
2022-11-24T13:23:26.038Z,54.81
2022-11-24T13:29:06.133Z,49.94
2022-11-24T13:34:42.918Z,52.13
2022-11-24T13:40:08.323Z,51.76
2022-11-24T13:45:51.317Z,52.42
2022-11-24T13:50:58.756Z,53.52
2022-11-24T13:56:12.859Z,53.81
2022-11-24T14:01:36.298Z,53.09
2022-11-24T14:06:44.182Z,53.02
2022-11-24T14:11:58.190Z,52.68
2022-11-24T14:17:07.860Z,53.53
2022-11-24T14:22:36.571Z,54.25
2022-11-24T14:27:39.009Z,55.12
2022-11-24T14:32:42.154Z,55.25
2022-11-24T14:37:43.445Z,55.71
2022-11-24T14:42:50.270Z,55.88
2022-11-24T14:47:51.737Z,56.94
2022-11-24T14:52:58.010Z,56.78
2022-11-24T14:57:59.841Z,58.39
2022-11-24T15:03:01.063Z,57.92
2022-11-24T15:08:03.499Z,58.40
2022-11-24T15:13:18.142Z,58.36
2022-11-24T15:18:26.321Z,58.37
2022-11-24T15:23:32.187Z,59.40
2022-11-24T15:28:33.550Z,60.27
2022-11-24T15:33:34.844Z,60.80
2022-11-24T15:38:36.137Z,61.84
2022-11-24T15:43:41.169Z,62.25
2022-11-24T15:48:42.459Z,63.32
2022-11-24T15:53:54.119Z,64.54
2022-11-24T15:58:58.533Z,65.34
2022-11-24T16:04:01.024Z,66.09
2022-11-24T16:09:02.395Z,66.92
2022-11-24T16:14:03.906Z,67.40
2022-11-24T16:19:05.379Z,68.28
2022-11-24T16:24:07.137Z,68.94
2022-11-24T16:29:08.424Z,69.11
2022-11-24T16:34:10.040Z,69.50
2022-11-24T16:39:11.580Z,69.85
2022-11-24T16:44:12.854Z,70.98
2022-11-24T16:49:14.277Z,70.40
2022-11-24T16:54:15.545Z,70.47
2022-11-24T16:59:16.878Z,70.72
2022-11-24T17:04:18.120Z,71.09
2022-11-24T17:09:19.474Z,71.55
2022-11-24T17:14:20.748Z,72.30
2022-11-24T17:19:22.054Z,72.20
2022-11-24T17:24:23.438Z,72.76
2022-11-24T17:29:24.780Z,72.78
2022-11-24T17:34:26.028Z,73.15
2022-11-24T17:39:27.706Z,72.97
2022-11-24T17:44:29.117Z,73.17
2022-11-24T17:49:30.369Z,73.39
2022-11-24T17:54:45.974Z,73.60
2022-11-24T17:59:53.131Z,73.70
2022-11-24T18:04:54.502Z,73.96
2022-11-24T18:09:55.860Z,74.32
2022-11-24T18:14:57.322Z,74.41
2022-11-24T18:19:58.579Z,74.81
2022-11-24T18:24:59.881Z,74.55
2022-11-24T18:30:01.198Z,74.73
2022-11-24T18:35:02.523Z,75.06
2022-11-24T18:40:04.262Z,74.96
2022-11-24T18:45:06.245Z,74.98
2022-11-24T18:50:08.320Z,74.21
2022-11-24T18:55:10.049Z,74.01
2022-11-24T19:00:12.161Z,74.06
2022-11-24T19:05:13.432Z,74.40
2022-11-24T19:10:15.900Z,75.04
2022-11-24T19:15:17.276Z,75.30
2022-11-24T19:20:18.570Z,75.51
2022-11-24T19:25:19.903Z,75.60
2022-11-24T19:30:21.171Z,75.46
2022-11-24T19:35:22.596Z,75.66
2022-11-24T19:40:23.916Z,76.44
2022-11-24T19:45:25.277Z,77.10
2022-11-24T19:50:26.599Z,76.37
2022-11-24T19:55:27.905Z,77.02
2022-11-24T20:00:31.923Z,76.72
2022-11-24T20:05:33.604Z,77.52
2022-11-24T20:10:34.908Z,78.15
2022-11-24T20:15:36.191Z,78.18
2022-11-24T20:20:37.609Z,78.17
2022-11-24T20:25:39.166Z,77.86
2022-11-24T20:30:40.647Z,78.14
2022-11-24T20:35:41.947Z,78.06
2022-11-24T20:40:43.225Z,78.08
2022-11-24T20:45:44.576Z,78.64
2022-11-24T20:50:51.114Z,78.65
2022-11-24T20:56:04.385Z,78.75
2022-11-24T21:01:15.946Z,79.11
2022-11-24T21:06:17.403Z,78.96
2022-11-24T21:11:19.979Z,78.92
2022-11-24T21:16:24.007Z,79.26
2022-11-24T21:21:28.208Z,79.72
2022-11-24T21:26:29.926Z,79.49
2022-11-24T21:31:35.329Z,78.98
2022-11-24T21:36:40.088Z,79.05
2022-11-24T21:41:41.496Z,79.70
2022-11-24T21:46:48.257Z,80.37
2022-11-24T21:51:55.559Z,80.62
2022-11-24T21:56:57.216Z,80.79
2022-11-24T22:01:58.648Z,80.62
2022-11-24T22:07:00.045Z,81.12
2022-11-24T22:12:01.343Z,81.22
2022-11-24T22:17:02.603Z,80.57
2022-11-24T22:22:03.843Z,80.52
2022-11-24T22:27:05.132Z,80.86
2022-11-24T22:32:06.524Z,81.73
2022-11-24T22:37:07.848Z,81.32
2022-11-24T22:42:09.091Z,81.45
2022-11-24T22:47:10.385Z,81.39
2022-11-24T22:52:13.947Z,82.00
2022-11-24T22:57:15.198Z,82.52
2022-11-24T23:02:16.490Z,82.28
2022-11-24T23:07:17.939Z,82.08
2022-11-24T23:12:19.225Z,82.16
2022-11-24T23:17:20.597Z,82.27
2022-11-24T23:22:21.938Z,82.20
2022-11-24T23:27:23.218Z,81.88
2022-11-24T23:32:24.514Z,81.92
2022-11-24T23:37:39.411Z,82.56
2022-11-24T23:42:48.037Z,82.62
2022-11-24T23:47:49.377Z,82.74
2022-11-24T23:52:50.632Z,82.72
2022-11-24T23:57:51.907Z,83.39
